Terminal Aerodrome Forecast
Issued by NWS

Home | Current Version | Previous Version | Text Only | Print | Product List | Glossary On
Versions: 1 2 3 4 5 6 7 8 9 10 11 12 13 14 15 16 17 18 19 20 21 22 23 24 25
000
FTUS43 KGRB 101700
TAFAUW
TAF
KAUW 101735Z 1018/1118 18009G14KT P6SM SCT060
     FM110300 15006KT P6SM BKN250
     FM111500 18012G19KT P6SM VCSH BKN045 OVC100=

USA.gov is the U.S. government's official web portal to all federal, state and local government web resources and services.